createdAt,value
2022-12-11T00:01:30.946Z,18.47
2022-12-11T00:03:58.026Z,16.97
2022-12-11T00:06:25.174Z,19.73
2022-12-11T00:08:53.665Z,18.27
2022-12-11T00:11:21.222Z,13.43
2022-12-11T00:13:48.344Z,14.10
2022-12-11T00:16:15.489Z,16.83
2022-12-11T00:18:42.641Z,21.03
2022-12-11T00:21:10.209Z,19.50
2022-12-11T00:23:37.417Z,18.87
2022-12-11T00:26:08.027Z,13.27
2022-12-11T00:28:35.155Z,18.87
2022-12-11T00:31:06.097Z,17.40
2022-12-11T00:33:33.170Z,11.93
2022-12-11T00:36:00.288Z,13.10
2022-12-11T00:38:27.512Z,13.90
2022-12-11T00:40:58.321Z,16.27
2022-12-11T00:43:25.452Z,16.57
2022-12-11T00:45:52.591Z,18.07
2022-12-11T00:48:19.688Z,15.70
2022-12-11T00:50:47.046Z,14.10
2022-12-11T00:53:14.135Z,17.83
2022-12-11T00:55:41.579Z,14.90
2022-12-11T00:58:09.238Z,25.97
2022-12-11T01:00:36.405Z,24.43
2022-12-11T01:03:03.595Z,18.37
2022-12-11T01:05:30.865Z,14.80
2022-12-11T01:07:58.004Z,18.20
2022-12-11T01:10:25.162Z,21.83
2022-12-11T01:12:52.381Z,26.60
2022-12-11T01:15:20.311Z,16.33
2022-12-11T01:17:47.393Z,15.53
2022-12-11T01:20:14.534Z,11.13
2022-12-11T01:22:41.634Z,11.93
2022-12-11T01:25:12.186Z,15.83
2022-12-11T01:27:39.681Z,10.77
2022-12-11T01:30:07.839Z,10.40
2022-12-11T01:32:35.228Z,10.60
2022-12-11T01:35:04.367Z,9.67
2022-12-11T01:37:31.443Z,12.47
2022-12-11T01:39:58.569Z,10.80
2022-12-11T01:42:26.289Z,10.23
2022-12-11T01:45:14.153Z,9.87
2022-12-11T01:47:41.249Z,10.90
2022-12-11T01:50:08.488Z,14.00
2022-12-11T01:52:35.571Z,14.47
2022-12-11T01:55:02.708Z,16.33
2022-12-11T01:57:29.778Z,11.37
2022-12-11T01:59:56.953Z,11.77
2022-12-11T02:02:30.580Z,9.73
2022-12-11T02:04:57.748Z,11.87
2022-12-11T02:07:24.837Z,11.53
2022-12-11T02:09:51.944Z,15.00
2022-12-11T02:12:34.489Z,12.43
2022-12-11T02:15:04.461Z,10.03
2022-12-11T02:17:37.385Z,10.37
2022-12-11T02:20:07.298Z,11.27
2022-12-11T02:22:34.760Z,9.83
2022-12-11T02:25:05.993Z,13.53
2022-12-11T02:27:42.375Z,12.30
2022-12-11T02:30:10.052Z,13.63
2022-12-11T02:32:46.725Z,14.23
2022-12-11T02:35:16.283Z,10.07
2022-12-11T02:37:44.472Z,17.97
2022-12-11T02:40:12.242Z,13.70
2022-12-11T02:42:39.662Z,11.97
2022-12-11T02:45:06.995Z,11.13
2022-12-11T02:47:34.202Z,13.00
2022-12-11T02:50:01.899Z,10.27
2022-12-11T02:52:28.988Z,12.37
2022-12-11T02:54:56.509Z,9.67
2022-12-11T02:57:28.855Z,11.03
2022-12-11T02:59:55.960Z,10.40
2022-12-11T03:02:23.103Z,11.40
2022-12-11T03:04:50.211Z,12.23
2022-12-11T03:07:19.210Z,10.83
2022-12-11T03:09:47.094Z,10.57
2022-12-11T03:12:16.691Z,10.60
2022-12-11T03:14:43.786Z,9.57
2022-12-11T03:17:17.144Z,16.10
2022-12-11T03:20:10.325Z,11.60
2022-12-11T03:22:44.992Z,17.93
2022-12-11T03:25:32.458Z,13.87
2022-12-11T03:28:02.283Z,12.47
2022-12-11T03:30:29.514Z,13.40
2022-12-11T03:32:58.083Z,8.80
2022-12-11T03:35:45.050Z,12.77
2022-12-11T03:38:13.286Z,11.03
2022-12-11T03:40:40.810Z,10.83
2022-12-11T03:43:07.943Z,11.10
2022-12-11T03:45:35.023Z,11.27
2022-12-11T03:48:02.362Z,10.27
2022-12-11T03:50:29.847Z,11.73
2022-12-11T03:52:56.913Z,16.13
2022-12-11T03:55:24.060Z,15.23
2022-12-11T03:57:51.182Z,17.30
2022-12-11T04:00:18.975Z,13.20
2022-12-11T04:03:11.380Z,12.17
2022-12-11T04:05:41.139Z,12.27
2022-12-11T04:08:08.300Z,15.83
2022-12-11T04:10:35.383Z,11.83
2022-12-11T04:13:02.475Z,12.97
2022-12-11T04:15:29.589Z,21.67
2022-12-11T04:18:15.364Z,14.40
2022-12-11T04:21:01.399Z,14.90
2022-12-11T04:23:47.162Z,10.77
2022-12-11T04:26:18.048Z,11.50
2022-12-11T04:28:45.358Z,10.20
2022-12-11T04:31:13.288Z,9.60
2022-12-11T04:33:40.447Z,11.40
2022-12-11T04:36:07.795Z,11.80
2022-12-11T04:38:34.868Z,20.47
2022-12-11T04:41:02.427Z,17.93
2022-12-11T04:43:29.559Z,18.27
2022-12-11T04:46:02.855Z,16.43
2022-12-11T04:48:30.016Z,10.77
2022-12-11T04:50:57.100Z,9.53
2022-12-11T04:53:24.212Z,14.93
2022-12-11T04:55:51.294Z,14.43
2022-12-11T04:58:18.418Z,11.90
2022-12-11T05:00:45.530Z,9.33
2022-12-11T05:03:12.942Z,10.37
2022-12-11T05:05:40.048Z,10.00
2022-12-11T05:08:07.612Z,8.07
2022-12-11T05:10:34.740Z,8.73
2022-12-11T05:13:01.880Z,8.67
2022-12-11T05:15:28.996Z,7.73
2022-12-11T05:17:56.116Z,7.70
2022-12-11T05:20:23.185Z,8.57
2022-12-11T05:22:50.295Z,12.93
2022-12-11T05:25:17.458Z,13.37
2022-12-11T05:27:44.530Z,17.27
2022-12-11T05:30:11.818Z,16.63
2022-12-11T05:32:38.916Z,10.93
2022-12-11T05:35:06.226Z,14.30
2022-12-11T05:37:34.640Z,12.53
2022-12-11T05:40:01.717Z,8.03
2022-12-11T05:42:29.247Z,17.87
2022-12-11T05:44:56.505Z,16.77
2022-12-11T05:47:23.651Z,14.50
2022-12-11T05:49:50.918Z,14.73
2022-12-11T05:52:18.207Z,14.97
2022-12-11T05:54:45.284Z,17.53
2022-12-11T05:57:12.373Z,15.70
2022-12-11T05:59:39.514Z,33.03
2022-12-11T06:02:06.667Z,19.70
2022-12-11T06:04:34.077Z,17.97
2022-12-11T06:07:01.205Z,14.13
2022-12-11T06:09:28.264Z,11.60
2022-12-11T06:11:55.357Z,12.67
2022-12-11T06:14:22.462Z,10.20
2022-12-11T06:16:50.318Z,15.93
2022-12-11T06:19:18.464Z,11.00
2022-12-11T06:21:45.932Z,16.57
2022-12-11T06:24:13.174Z,19.43
2022-12-11T06:26:40.306Z,16.00
2022-12-11T06:29:10.959Z,17.13
2022-12-11T06:31:39.884Z,17.53
2022-12-11T06:34:07.077Z,22.03
2022-12-11T06:36:34.239Z,12.47
2022-12-11T06:39:01.315Z,20.63
2022-12-11T06:41:28.402Z,16.53
2022-12-11T06:43:55.517Z,17.53
2022-12-11T06:46:22.707Z,14.57
2022-12-11T06:48:49.868Z,19.33
2022-12-11T06:51:20.650Z,18.77
2022-12-11T06:53:51.992Z,31.30
2022-12-11T06:56:19.146Z,19.83
2022-12-11T06:58:46.340Z,29.40
2022-12-11T07:01:17.629Z,26.60
2022-12-11T07:03:44.808Z,24.57
2022-12-11T07:06:11.920Z,16.43
2022-12-11T07:08:39.016Z,14.00
2022-12-11T07:11:15.346Z,12.63
2022-12-11T07:13:42.511Z,9.63
2022-12-11T07:16:12.993Z,11.50
2022-12-11T07:18:40.613Z,11.33
2022-12-11T07:21:08.021Z,14.50
2022-12-11T07:23:35.633Z,13.37
2022-12-11T07:26:06.261Z,20.63
2022-12-11T07:28:33.714Z,18.57
2022-12-11T07:31:00.997Z,24.90
2022-12-11T07:33:28.133Z,29.03
2022-12-11T07:35:55.278Z,40.23
2022-12-11T07:38:22.351Z,39.63
2022-12-11T07:40:49.495Z,40.43
2022-12-11T07:43:16.565Z,25.47
2022-12-11T07:45:43.717Z,26.87
2022-12-11T07:48:10.921Z,16.70
2022-12-11T07:50:39.918Z,22.47
2022-12-11T07:53:07.709Z,25.90
2022-12-11T07:55:34.874Z,32.20
2022-12-11T07:58:01.943Z,49.97
2022-12-11T08:00:29.030Z,35.77
2022-12-11T08:02:56.216Z,36.07
2022-12-11T08:05:23.314Z,39.10
2022-12-11T08:07:50.670Z,54.20
2022-12-11T08:10:18.264Z,28.80
2022-12-11T08:12:45.363Z,32.03
2022-12-11T08:15:12.664Z,41.80
2022-12-11T08:17:40.377Z,34.57
2022-12-11T08:20:08.461Z,36.60
2022-12-11T08:22:35.583Z,28.07
2022-12-11T08:25:02.823Z,15.07
2022-12-11T08:27:30.150Z,13.67
2022-12-11T08:29:57.229Z,13.70
2022-12-11T08:32:24.419Z,18.90
2022-12-11T08:34:52.338Z,22.37
2022-12-11T08:37:19.416Z,22.50
2022-12-11T08:39:47.066Z,17.23
2022-12-11T08:42:14.166Z,13.03
2022-12-11T08:44:41.316Z,16.23
2022-12-11T08:47:09.940Z,10.93
2022-12-11T08:49:37.287Z,13.47
2022-12-11T08:52:04.863Z,18.27
2022-12-11T08:54:32.080Z,14.13
2022-12-11T08:56:59.221Z,18.53
2022-12-11T08:59:26.328Z,14.70
2022-12-11T09:01:53.547Z,20.23
2022-12-11T09:04:20.652Z,19.17
2022-12-11T09:06:47.733Z,42.33
2022-12-11T09:09:14.904Z,42.47
2022-12-11T09:11:41.981Z,26.80
2022-12-11T09:14:09.256Z,26.37
2022-12-11T09:16:40.592Z,18.33
2022-12-11T09:19:08.232Z,14.87
2022-12-11T09:21:35.301Z,19.73
2022-12-11T09:24:02.496Z,20.43
2022-12-11T09:26:30.142Z,22.13
2022-12-11T09:28:57.341Z,20.47
2022-12-11T09:31:31.281Z,13.77
2022-12-11T09:33:59.582Z,18.30
2022-12-11T09:36:26.653Z,16.03
2022-12-11T09:38:53.819Z,16.67
2022-12-11T09:41:23.916Z,24.00
2022-12-11T09:44:02.024Z,26.00
2022-12-11T09:46:33.806Z,34.07
2022-12-11T09:49:01.438Z,29.17
2022-12-11T09:51:30.450Z,34.67
2022-12-11T09:53:57.886Z,26.97
2022-12-11T09:56:28.158Z,34.40
2022-12-11T09:59:10.379Z,44.83
2022-12-11T10:01:49.804Z,36.07
2022-12-11T10:04:19.612Z,18.80
2022-12-11T10:07:04.689Z,20.00
2022-12-11T10:09:34.842Z,25.33
2022-12-11T10:12:07.834Z,14.43
2022-12-11T10:14:37.754Z,15.10
2022-12-11T10:17:07.735Z,15.90
2022-12-11T10:19:34.823Z,13.23
2022-12-11T10:22:02.038Z,12.47
2022-12-11T10:25:07.685Z,16.00
2022-12-11T10:27:19.845Z,15.40
2022-12-11T10:29:47.440Z,18.27
2022-12-11T10:32:27.498Z,13.03
2022-12-11T10:34:59.560Z,16.17
2022-12-11T10:37:26.656Z,15.33
2022-12-11T10:39:53.807Z,20.50
2022-12-11T10:42:21.277Z,15.63
2022-12-11T10:44:58.484Z,13.93
2022-12-11T10:47:25.633Z,12.00
2022-12-11T10:49:54.611Z,11.93
2022-12-11T10:52:23.703Z,19.47
2022-12-11T10:54:56.080Z,23.60
2022-12-11T10:57:27.234Z,16.03
2022-12-11T10:59:54.343Z,16.70
2022-12-11T11:02:27.747Z,15.43
2022-12-11T11:04:55.259Z,16.83
2022-12-11T11:07:26.144Z,14.77
2022-12-11T11:10:04.414Z,20.77
2022-12-11T11:12:31.707Z,16.60
2022-12-11T11:15:02.349Z,17.53
2022-12-11T11:17:34.480Z,32.70
2022-12-11T11:20:04.963Z,19.87
2022-12-11T11:22:32.068Z,22.53
2022-12-11T11:24:59.405Z,16.60
2022-12-11T11:27:31.416Z,26.67
2022-12-11T11:29:59.285Z,15.77
2022-12-11T11:32:29.126Z,16.73
2022-12-11T11:35:06.034Z,17.57
2022-12-11T11:37:33.765Z,21.53
2022-12-11T11:40:04.302Z,14.67
2022-12-11T11:42:38.271Z,13.73
2022-12-11T11:45:24.984Z,18.37
2022-12-11T11:48:11.042Z,14.93
2022-12-11T11:50:38.620Z,19.57
2022-12-11T11:53:06.733Z,19.67
2022-12-11T11:55:55.797Z,16.20
2022-12-11T11:58:32.721Z,17.33
2022-12-11T12:00:59.797Z,18.03
2022-12-11T12:03:26.940Z,16.30
2022-12-11T12:06:05.525Z,18.97
2022-12-11T12:09:02.014Z,19.57
2022-12-11T12:11:41.746Z,15.33
2022-12-11T12:14:43.506Z,16.90
2022-12-11T12:17:02.225Z,45.43
2022-12-11T12:20:04.699Z,24.40
2022-12-11T12:22:34.677Z,24.23
2022-12-11T12:25:20.523Z,21.73
2022-12-11T12:28:00.484Z,21.17
2022-12-11T12:30:27.898Z,29.53
2022-12-11T12:33:04.232Z,33.77
2022-12-11T12:35:31.904Z,25.50
2022-12-11T12:38:05.379Z,26.93
2022-12-11T12:40:38.591Z,33.70
2022-12-11T12:43:22.938Z,28.30
2022-12-11T12:45:53.073Z,32.57
2022-12-11T12:48:20.601Z,34.30
2022-12-11T12:50:48.718Z,38.67
2022-12-11T12:53:19.343Z,29.37
2022-12-11T12:55:46.655Z,25.67
2022-12-11T12:58:26.525Z,29.93
2022-12-11T13:00:53.662Z,36.90
2022-12-11T13:03:22.092Z,28.83
2022-12-11T13:06:01.178Z,18.67
2022-12-11T13:08:29.010Z,19.00
2022-12-11T13:11:03.388Z,32.17
2022-12-11T13:13:32.389Z,63.70
2022-12-11T13:16:17.625Z,73.37
2022-12-11T13:18:45.378Z,56.90
2022-12-11T13:21:31.455Z,37.97
2022-12-11T13:24:14.023Z,38.53
2022-12-11T13:26:41.173Z,45.23
2022-12-11T13:29:28.277Z,83.70
2022-12-11T13:32:12.916Z,62.43
2022-12-11T13:34:41.142Z,32.73
2022-12-11T13:37:17.798Z,64.97
2022-12-11T13:39:46.522Z,63.43
2022-12-11T13:42:24.559Z,63.67
2022-12-11T13:44:51.629Z,35.67
2022-12-11T13:47:19.003Z,85.67
2022-12-11T13:49:47.052Z,46.83
2022-12-11T13:52:25.838Z,56.00
2022-12-11T13:54:55.670Z,57.93
2022-12-11T13:57:23.464Z,33.97
2022-12-11T13:59:53.025Z,29.53
2022-12-11T14:02:22.019Z,21.53
2022-12-11T14:04:49.606Z,25.27
2022-12-11T14:07:17.530Z,33.63
2022-12-11T14:09:44.981Z,48.23
2022-12-11T14:12:19.223Z,36.27
2022-12-11T14:14:47.578Z,47.60
2022-12-11T14:17:15.224Z,45.57
2022-12-11T14:19:46.219Z,41.10
2022-12-11T14:22:26.619Z,31.57
2022-12-11T14:24:57.420Z,49.93
2022-12-11T14:27:24.551Z,58.80
2022-12-11T14:29:51.872Z,43.87
2022-12-11T14:32:37.566Z,39.13
2022-12-11T14:35:05.582Z,47.83
2022-12-11T14:37:32.696Z,47.53
2022-12-11T14:39:59.819Z,28.63
2022-12-11T14:42:31.066Z,30.00
2022-12-11T14:45:01.186Z,31.83
2022-12-11T14:47:28.816Z,27.80
2022-12-11T14:50:14.859Z,37.60
2022-12-11T14:52:43.190Z,36.57
2022-12-11T14:55:21.356Z,41.67
2022-12-11T14:57:48.814Z,50.53
2022-12-11T15:00:23.181Z,42.13
2022-12-11T15:03:06.735Z,35.80
2022-12-11T15:05:40.331Z,34.90
2022-12-11T15:08:10.967Z,42.40
2022-12-11T15:10:38.734Z,52.50
2022-12-11T15:13:05.876Z,78.27
2022-12-11T15:15:34.065Z,67.97
2022-12-11T15:18:01.181Z,40.53
2022-12-11T15:20:28.933Z,34.80
2022-12-11T15:22:57.185Z,27.33
2022-12-11T15:25:24.968Z,24.13
2022-12-11T15:27:55.953Z,21.00
2022-12-11T15:30:26.821Z,22.07
2022-12-11T15:33:02.887Z,27.37
2022-12-11T15:35:29.998Z,32.37
2022-12-11T15:37:57.598Z,27.93
2022-12-11T15:40:25.904Z,31.60
2022-12-11T15:42:54.822Z,48.90
2022-12-11T15:45:22.530Z,35.30
2022-12-11T15:47:49.749Z,35.87
2022-12-11T15:50:16.914Z,29.37
2022-12-11T15:52:44.176Z,28.73
2022-12-11T15:55:11.674Z,46.43
2022-12-11T15:57:39.043Z,30.73
2022-12-11T16:00:06.564Z,54.57
2022-12-11T16:02:33.771Z,31.70
2022-12-11T16:05:01.008Z,31.47
2022-12-11T16:07:28.145Z,26.67
2022-12-11T16:09:55.248Z,45.83
2022-12-11T16:12:22.457Z,28.57
2022-12-11T16:14:49.555Z,32.37
2022-12-11T16:17:16.773Z,29.47
2022-12-11T16:19:44.019Z,37.70
2022-12-11T16:22:11.420Z,36.97
2022-12-11T16:24:38.589Z,37.70
2022-12-11T16:27:05.806Z,45.30
2022-12-11T16:29:36.326Z,43.47
2022-12-11T16:32:04.008Z,47.53
2022-12-11T16:34:31.154Z,41.53
2022-12-11T16:36:58.515Z,32.73
2022-12-11T16:39:25.620Z,31.77
2022-12-11T16:41:52.755Z,35.80
2022-12-11T16:44:20.395Z,34.27
2022-12-11T16:46:47.688Z,29.50
2022-12-11T16:49:14.842Z,24.13
2022-12-11T16:51:42.072Z,24.23
2022-12-11T16:54:09.386Z,23.67
2022-12-11T16:56:38.402Z,21.73
2022-12-11T16:59:05.568Z,18.97
2022-12-11T17:01:32.824Z,17.43
2022-12-11T17:04:00.261Z,24.30
2022-12-11T17:06:27.416Z,26.00
2022-12-11T17:08:54.556Z,33.40
2022-12-11T17:11:22.177Z,30.07
2022-12-11T17:13:53.240Z,47.77
2022-12-11T17:16:22.085Z,53.27
2022-12-11T17:18:49.253Z,50.80
2022-12-11T17:21:17.244Z,51.03
2022-12-11T17:23:44.499Z,32.57
2022-12-11T17:26:11.836Z,32.63
2022-12-11T17:28:38.925Z,24.60
2022-12-11T17:31:06.644Z,27.87
2022-12-11T17:33:33.843Z,23.90
2022-12-11T17:36:01.569Z,19.93
2022-12-11T17:38:28.706Z,23.67
2022-12-11T17:40:56.169Z,17.80
2022-12-11T17:43:23.282Z,19.17
2022-12-11T17:45:52.457Z,20.23
2022-12-11T17:48:22.286Z,19.60
2022-12-11T17:50:49.414Z,21.73
2022-12-11T17:53:16.742Z,16.47
2022-12-11T17:55:44.044Z,18.47
2022-12-11T17:58:11.740Z,32.00
2022-12-11T18:00:40.015Z,29.27
2022-12-11T18:03:07.392Z,22.13
2022-12-11T18:05:34.654Z,23.00
2022-12-11T18:08:01.857Z,21.70
2022-12-11T18:10:28.996Z,19.30
2022-12-11T18:12:56.091Z,22.37
2022-12-11T18:15:23.971Z,24.00
2022-12-11T18:17:51.121Z,22.37
2022-12-11T18:20:18.252Z,24.80
2022-12-11T18:22:45.330Z,22.97
2022-12-11T18:25:12.947Z,25.20
2022-12-11T18:27:40.264Z,23.10
2022-12-11T18:30:07.670Z,26.77
2022-12-11T18:32:34.821Z,33.23
2022-12-11T18:35:02.586Z,29.27
2022-12-11T18:37:29.829Z,29.73
2022-12-11T18:39:56.959Z,44.50
2022-12-11T18:42:32.678Z,34.70
2022-12-11T18:45:00.401Z,34.57
2022-12-11T18:47:27.491Z,30.00
2022-12-11T18:49:54.653Z,35.30
2022-12-11T18:52:21.969Z,24.80
2022-12-11T18:54:50.379Z,30.17
2022-12-11T18:57:17.475Z,31.23
2022-12-11T18:59:44.588Z,25.07
2022-12-11T19:02:12.945Z,31.97
2022-12-11T19:04:40.123Z,30.60
2022-12-11T19:07:07.227Z,44.20
2022-12-11T19:09:38.093Z,39.07
2022-12-11T19:12:05.994Z,34.13
2022-12-11T19:14:34.438Z,33.30
2022-12-11T19:17:03.147Z,34.10
2022-12-11T19:19:30.274Z,34.97
2022-12-11T19:21:57.387Z,38.53
2022-12-11T19:24:25.088Z,40.27
2022-12-11T19:26:52.287Z,39.60
2022-12-11T19:29:23.395Z,36.30
2022-12-11T19:31:50.742Z,38.37
2022-12-11T19:34:17.855Z,41.93
2022-12-11T19:36:44.975Z,43.03
2022-12-11T19:39:13.479Z,43.50
2022-12-11T19:41:40.843Z,58.87
2022-12-11T19:44:07.964Z,43.87
2022-12-11T19:46:35.548Z,40.30
2022-12-11T19:49:02.833Z,42.63
2022-12-11T19:51:33.951Z,30.53
2022-12-11T19:54:04.149Z,29.80
2022-12-11T19:56:31.464Z,33.47
2022-12-11T19:59:00.601Z,32.50
2022-12-11T20:01:30.900Z,35.23
2022-12-11T20:03:59.572Z,35.00
2022-12-11T20:06:30.016Z,33.00
2022-12-11T20:08:57.237Z,25.67
2022-12-11T20:11:24.429Z,27.37
2022-12-11T20:13:51.614Z,26.50
2022-12-11T20:16:33.397Z,31.43
2022-12-11T20:19:06.497Z,36.57
2022-12-11T20:21:33.650Z,52.80
2022-12-11T20:24:00.725Z,55.00
2022-12-11T20:26:29.574Z,49.60
2022-12-11T20:28:56.873Z,51.70
2022-12-11T20:31:24.872Z,54.57
2022-12-11T20:33:52.332Z,44.33
2022-12-11T20:36:19.791Z,33.57
2022-12-11T20:38:46.886Z,23.27
2022-12-11T20:41:14.429Z,25.93
2022-12-11T20:43:41.671Z,30.57
2022-12-11T20:46:09.707Z,34.50
2022-12-11T20:48:36.979Z,28.53
2022-12-11T20:51:04.357Z,28.83
2022-12-11T20:53:31.487Z,33.13
2022-12-11T20:55:58.635Z,38.20
2022-12-11T20:58:25.724Z,33.63
2022-12-11T21:00:52.992Z,30.50
2022-12-11T21:03:20.215Z,34.03
2022-12-11T21:05:47.322Z,34.70
2022-12-11T21:08:14.571Z,28.83
2022-12-11T21:10:42.441Z,28.70
2022-12-11T21:13:09.566Z,27.77
2022-12-11T21:15:39.839Z,23.50
2022-12-11T21:18:07.300Z,28.47
2022-12-11T21:20:34.443Z,23.20
2022-12-11T21:23:01.698Z,26.83
2022-12-11T21:25:28.843Z,22.93
2022-12-11T21:27:55.932Z,25.67
2022-12-11T21:30:23.139Z,23.67
2022-12-11T21:32:50.275Z,25.23
2022-12-11T21:35:17.460Z,23.17
2022-12-11T21:37:44.536Z,25.43
2022-12-11T21:40:11.878Z,25.10
2022-12-11T21:42:38.952Z,20.97
2022-12-11T21:47:53.462Z,20.60
2022-12-11T21:50:21.288Z,26.57
2022-12-11T21:52:48.370Z,19.23
2022-12-11T21:55:15.613Z,29.20
2022-12-11T21:57:42.754Z,28.23
2022-12-11T22:00:10.175Z,53.57
2022-12-11T22:02:40.805Z,34.20
2022-12-11T22:05:08.704Z,30.73
2022-12-11T22:07:35.837Z,39.10
2022-12-11T22:10:03.063Z,29.00
2022-12-11T22:12:30.200Z,31.13
2022-12-11T22:14:57.351Z,22.03
2022-12-11T22:17:24.615Z,36.40
2022-12-11T22:19:54.627Z,29.33
2022-12-11T22:22:21.709Z,22.47
2022-12-11T22:24:49.062Z,23.50
2022-12-11T22:27:20.515Z,18.77
2022-12-11T22:29:50.683Z,34.53
2022-12-11T22:32:17.776Z,28.53
2022-12-11T22:34:44.939Z,35.23
2022-12-11T22:37:12.051Z,45.83
2022-12-11T22:39:39.131Z,43.70
2022-12-11T22:42:06.269Z,54.07
2022-12-11T22:44:33.410Z,37.40
2022-12-11T22:47:00.485Z,36.40
2022-12-11T22:49:27.563Z,26.23
2022-12-11T22:51:54.702Z,24.70
2022-12-11T22:54:21.785Z,18.30
2022-12-11T22:56:48.923Z,18.40
2022-12-11T22:59:16.077Z,21.63
2022-12-11T23:01:43.201Z,18.50
2022-12-11T23:04:10.285Z,17.00
2022-12-11T23:06:37.414Z,17.73
2022-12-11T23:09:04.535Z,18.97
2022-12-11T23:11:34.775Z,16.10
2022-12-11T23:14:02.076Z,18.37
2022-12-11T23:16:29.260Z,19.17
2022-12-11T23:18:56.493Z,17.73
2022-12-11T23:21:23.701Z,24.03
2022-12-11T23:23:50.854Z,17.47
2022-12-11T23:26:18.695Z,16.37
2022-12-11T23:28:45.897Z,19.60
2022-12-11T23:31:13.048Z,16.27
2022-12-11T23:33:40.221Z,15.40
2022-12-11T23:36:07.511Z,17.87
2022-12-11T23:38:34.587Z,22.93
2022-12-11T23:41:01.866Z,17.53
2022-12-11T23:43:29.068Z,22.53
2022-12-11T23:45:56.212Z,19.63
2022-12-11T23:48:23.361Z,20.17
2022-12-11T23:50:50.469Z,20.27
2022-12-11T23:53:17.562Z,19.67
2022-12-11T23:55:45.255Z,18.53
2022-12-11T23:58:12.469Z,20.07
